sensor_id;sensor_type;location;lat;lon;timestamp;temperature;humidity
14893;DHT22;7538;53.626;9.906;2023-02-08T00:00:10;-1.10;99.90
14893;DHT22;7538;53.626;9.906;2023-02-08T00:02:37;-1.10;99.90
14893;DHT22;7538;53.626;9.906;2023-02-08T00:05:04;-1.10;99.90
14893;DHT22;7538;53.626;9.906;2023-02-08T00:07:31;-1.20;99.90
14893;DHT22;7538;53.626;9.906;2023-02-08T00:09:57;-1.20;99.90
14893;DHT22;7538;53.626;9.906;2023-02-08T00:12:24;-1.20;99.90
14893;DHT22;7538;53.626;9.906;2023-02-08T00:14:54;-1.20;99.90
14893;DHT22;7538;53.626;9.906;2023-02-08T00:17:20;-1.20;99.90
14893;DHT22;7538;53.626;9.906;2023-02-08T00:19:47;-1.30;99.90
14893;DHT22;7538;53.626;9.906;2023-02-08T00:22:14;-1.20;99.90
14893;DHT22;7538;53.626;9.906;2023-02-08T00:24:41;-1.30;99.90
14893;DHT22;7538;53.626;9.906;2023-02-08T00:27:07;-1.30;99.90
14893;DHT22;7538;53.626;9.906;2023-02-08T00:29:34;-1.30;99.90
14893;DHT22;7538;53.626;9.906;2023-02-08T00:32:03;-1.30;99.90
14893;DHT22;7538;53.626;9.906;2023-02-08T00:34:30;-1.30;99.90
14893;DHT22;7538;53.626;9.906;2023-02-08T00:36:57;-1.30;99.90
14893;DHT22;7538;53.626;9.906;2023-02-08T00:39:24;-1.40;99.90
14893;DHT22;7538;53.626;9.906;2023-02-08T00:41:51;-1.30;99.90
14893;DHT22;7538;53.626;9.906;2023-02-08T00:44:17;-1.30;99.90
14893;DHT22;7538;53.626;9.906;2023-02-08T00:46:44;-1.30;99.90
14893;DHT22;7538;53.626;9.906;2023-02-08T00:49:12;-1.30;99.90
14893;DHT22;7538;53.626;9.906;2023-02-08T00:51:39;-1.30;99.90
14893;DHT22;7538;53.626;9.906;2023-02-08T00:54:09;-1.30;99.90
14893;DHT22;7538;53.626;9.906;2023-02-08T00:56:37;-1.30;99.90
14893;DHT22;7538;53.626;9.906;2023-02-08T00:59:04;-1.20;99.90
14893;DHT22;7538;53.626;9.906;2023-02-08T01:01:31;-1.30;99.90
14893;DHT22;7538;53.626;9.906;2023-02-08T01:03:57;-1.30;99.90
14893;DHT22;7538;53.626;9.906;2023-02-08T01:06:26;-1.30;99.90
14893;DHT22;7538;53.626;9.906;2023-02-08T01:08:52;-1.30;99.90
14893;DHT22;7538;53.626;9.906;2023-02-08T01:11:23;-1.30;99.90
14893;DHT22;7538;53.626;9.906;2023-02-08T01:13:51;-1.30;99.90
14893;DHT22;7538;53.626;9.906;2023-02-08T01:16:22;-1.30;99.90
14893;DHT22;7538;53.626;9.906;2023-02-08T01:18:50;-1.30;99.90
14893;DHT22;7538;53.626;9.906;2023-02-08T01:21:19;-1.30;99.90
14893;DHT22;7538;53.626;9.906;2023-02-08T01:23:48;-1.30;99.90
14893;DHT22;7538;53.626;9.906;2023-02-08T01:26:16;-1.30;99.90
14893;DHT22;7538;53.626;9.906;2023-02-08T01:28:44;-1.30;99.90
14893;DHT22;7538;53.626;9.906;2023-02-08T01:31:14;-1.30;99.90
14893;DHT22;7538;53.626;9.906;2023-02-08T01:33:42;-1.30;99.90
14893;DHT22;7538;53.626;9.906;2023-02-08T01:36:09;-1.30;99.90
14893;DHT22;7538;53.626;9.906;2023-02-08T01:38:37;-1.30;99.90
14893;DHT22;7538;53.626;9.906;2023-02-08T01:41:08;-1.30;99.90
14893;DHT22;7538;53.626;9.906;2023-02-08T01:43:58;-1.30;99.90
14893;DHT22;7538;53.626;9.906;2023-02-08T01:46:25;-1.30;99.90
14893;DHT22;7538;53.626;9.906;2023-02-08T01:48:53;-1.30;99.90
14893;DHT22;7538;53.626;9.906;2023-02-08T01:51:24;-1.30;99.90
14893;DHT22;7538;53.626;9.906;2023-02-08T01:53:52;-1.30;99.90
14893;DHT22;7538;53.626;9.906;2023-02-08T01:56:26;-1.30;99.90
14893;DHT22;7538;53.626;9.906;2023-02-08T01:58:58;-1.30;99.90
14893;DHT22;7538;53.626;9.906;2023-02-08T02:01:26;-1.30;99.90
14893;DHT22;7538;53.626;9.906;2023-02-08T02:03:54;-1.30;99.90
14893;DHT22;7538;53.626;9.906;2023-02-08T02:06:23;-1.30;99.90
14893;DHT22;7538;53.626;9.906;2023-02-08T02:08:57;-1.30;99.90
14893;DHT22;7538;53.626;9.906;2023-02-08T02:11:28;-1.30;99.90
14893;DHT22;7538;53.626;9.906;2023-02-08T02:13:55;-1.30;99.90
14893;DHT22;7538;53.626;9.906;2023-02-08T02:16:21;-1.30;99.90
14893;DHT22;7538;53.626;9.906;2023-02-08T02:18:48;-1.30;99.90
14893;DHT22;7538;53.626;9.906;2023-02-08T02:21:27;-1.40;99.90
14893;DHT22;7538;53.626;9.906;2023-02-08T02:24:36;-1.40;99.90
14893;DHT22;7538;53.626;9.906;2023-02-08T02:27:27;-1.40;99.90
14893;DHT22;7538;53.626;9.906;2023-02-08T02:30:24;-1.40;99.90
14893;DHT22;7538;53.626;9.906;2023-02-08T02:33:06;-1.40;99.90
14893;DHT22;7538;53.626;9.906;2023-02-08T02:35:42;-1.40;99.90
14893;DHT22;7538;53.626;9.906;2023-02-08T02:38:13;-1.40;99.90
14893;DHT22;7538;53.626;9.906;2023-02-08T02:40:49;-1.30;99.90
14893;DHT22;7538;53.626;9.906;2023-02-08T02:43:25;-1.30;99.90
14893;DHT22;7538;53.626;9.906;2023-02-08T02:46:14;-1.30;99.90
14893;DHT22;7538;53.626;9.906;2023-02-08T02:48:48;-1.30;99.90
14893;DHT22;7538;53.626;9.906;2023-02-08T02:51:19;-1.30;99.90
14893;DHT22;7538;53.626;9.906;2023-02-08T02:53:51;-1.30;99.90
14893;DHT22;7538;53.626;9.906;2023-02-08T02:56:22;-1.30;99.90
14893;DHT22;7538;53.626;9.906;2023-02-08T02:58:50;-1.30;99.90
14893;DHT22;7538;53.626;9.906;2023-02-08T03:01:21;-1.30;99.90
14893;DHT22;7538;53.626;9.906;2023-02-08T03:03:52;-1.30;99.90
14893;DHT22;7538;53.626;9.906;2023-02-08T03:06:28;-1.30;99.90
14893;DHT22;7538;53.626;9.906;2023-02-08T03:09:21;-1.30;99.90
14893;DHT22;7538;53.626;9.906;2023-02-08T03:11:56;-1.30;99.90
14893;DHT22;7538;53.626;9.906;2023-02-08T03:14:33;-1.30;99.90
14893;DHT22;7538;53.626;9.906;2023-02-08T03:17:20;-1.30;99.90
14893;DHT22;7538;53.626;9.906;2023-02-08T03:19:56;-1.30;99.90
14893;DHT22;7538;53.626;9.906;2023-02-08T03:22:35;-1.30;99.90
14893;DHT22;7538;53.626;9.906;2023-02-08T03:25:07;-1.90;99.90
14893;DHT22;7538;53.626;9.906;2023-02-08T03:27:38;-1.20;99.90
14893;DHT22;7538;53.626;9.906;2023-02-08T03:30:11;-1.20;99.90
14893;DHT22;7538;53.626;9.906;2023-02-08T03:32:42;-1.20;99.90
14893;DHT22;7538;53.626;9.906;2023-02-08T03:35:14;-1.20;99.90
14893;DHT22;7538;53.626;9.906;2023-02-08T03:37:45;-1.20;99.90
14893;DHT22;7538;53.626;9.906;2023-02-08T03:40:17;-1.20;99.90
14893;DHT22;7538;53.626;9.906;2023-02-08T03:42:46;-1.20;99.90
14893;DHT22;7538;53.626;9.906;2023-02-08T03:45:17;-1.20;99.90
14893;DHT22;7538;53.626;9.906;2023-02-08T03:47:47;-1.20;99.90
14893;DHT22;7538;53.626;9.906;2023-02-08T03:50:17;-1.20;99.90
14893;DHT22;7538;53.626;9.906;2023-02-08T03:52:45;-1.20;99.90
14893;DHT22;7538;53.626;9.906;2023-02-08T03:55:15;-1.20;99.90
14893;DHT22;7538;53.626;9.906;2023-02-08T03:57:45;-1.20;99.90
14893;DHT22;7538;53.626;9.906;2023-02-08T04:00:16;-1.20;99.90
14893;DHT22;7538;53.626;9.906;2023-02-08T04:02:52;-1.20;99.90
14893;DHT22;7538;53.626;9.906;2023-02-08T04:05:22;-1.10;99.90
14893;DHT22;7538;53.626;9.906;2023-02-08T04:07:50;-1.20;99.90
14893;DHT22;7538;53.626;9.906;2023-02-08T04:10:17;-1.20;99.90
14893;DHT22;7538;53.626;9.906;2023-02-08T04:12:44;-1.20;99.90
14893;DHT22;7538;53.626;9.906;2023-02-08T04:15:12;-1.10;99.90
14893;DHT22;7538;53.626;9.906;2023-02-08T04:17:39;-1.10;99.90
14893;DHT22;7538;53.626;9.906;2023-02-08T04:20:07;-1.20;99.90
14893;DHT22;7538;53.626;9.906;2023-02-08T04:22:35;-1.20;99.90
14893;DHT22;7538;53.626;9.906;2023-02-08T04:25:02;-1.20;99.90
14893;DHT22;7538;53.626;9.906;2023-02-08T04:27:29;-1.20;99.90
14893;DHT22;7538;53.626;9.906;2023-02-08T04:29:56;-1.20;99.90
14893;DHT22;7538;53.626;9.906;2023-02-08T04:32:23;-1.20;99.90
14893;DHT22;7538;53.626;9.906;2023-02-08T04:34:49;-1.20;99.90
14893;DHT22;7538;53.626;9.906;2023-02-08T04:37:16;-1.20;99.90
14893;DHT22;7538;53.626;9.906;2023-02-08T04:39:44;-1.20;99.90
14893;DHT22;7538;53.626;9.906;2023-02-08T04:42:11;-1.20;99.90
14893;DHT22;7538;53.626;9.906;2023-02-08T04:44:38;-1.20;99.90
14893;DHT22;7538;53.626;9.906;2023-02-08T04:47:04;-1.20;99.90
14893;DHT22;7538;53.626;9.906;2023-02-08T04:49:32;-0.50;99.90
14893;DHT22;7538;53.626;9.906;2023-02-08T04:51:59;-1.20;99.90
14893;DHT22;7538;53.626;9.906;2023-02-08T04:54:26;-1.20;99.90
14893;DHT22;7538;53.626;9.906;2023-02-08T04:56:54;-1.20;99.90
14893;DHT22;7538;53.626;9.906;2023-02-08T04:59:21;-1.20;99.90
14893;DHT22;7538;53.626;9.906;2023-02-08T05:01:47;-1.20;99.90
14893;DHT22;7538;53.626;9.906;2023-02-08T05:04:14;-1.20;99.90
14893;DHT22;7538;53.626;9.906;2023-02-08T05:06:41;-1.20;99.90
14893;DHT22;7538;53.626;9.906;2023-02-08T05:09:08;-1.20;99.90
14893;DHT22;7538;53.626;9.906;2023-02-08T05:11:36;-1.20;99.90
14893;DHT22;7538;53.626;9.906;2023-02-08T05:14:04;-1.20;99.90
14893;DHT22;7538;53.626;9.906;2023-02-08T05:16:31;-1.20;99.90
14893;DHT22;7538;53.626;9.906;2023-02-08T05:18:57;-1.20;99.90
14893;DHT22;7538;53.626;9.906;2023-02-08T05:21:24;-1.20;99.90
14893;DHT22;7538;53.626;9.906;2023-02-08T05:23:51;-1.20;99.90
14893;DHT22;7538;53.626;9.906;2023-02-08T05:26:18;-1.20;99.90
14893;DHT22;7538;53.626;9.906;2023-02-08T05:28:45;1.40;99.90
14893;DHT22;7538;53.626;9.906;2023-02-08T05:31:16;-4.00;99.90
14893;DHT22;7538;53.626;9.906;2023-02-08T05:33:43;-1.30;99.90
14893;DHT22;7538;53.626;9.906;2023-02-08T05:36:09;-1.30;99.90
14893;DHT22;7538;53.626;9.906;2023-02-08T05:38:36;-1.30;99.90
14893;DHT22;7538;53.626;9.906;2023-02-08T05:41:03;-1.30;99.90
14893;DHT22;7538;53.626;9.906;2023-02-08T05:43:30;-1.40;99.90
14893;DHT22;7538;53.626;9.906;2023-02-08T05:45:57;-1.40;99.90
14893;DHT22;7538;53.626;9.906;2023-02-08T05:48:25;-1.40;99.90
14893;DHT22;7538;53.626;9.906;2023-02-08T05:50:52;-1.40;99.90
14893;DHT22;7538;53.626;9.906;2023-02-08T05:53:19;-1.40;99.90
14893;DHT22;7538;53.626;9.906;2023-02-08T05:55:46;-1.40;99.90
14893;DHT22;7538;53.626;9.906;2023-02-08T05:58:14;-1.40;99.90
14893;DHT22;7538;53.626;9.906;2023-02-08T06:00:41;-1.40;99.90
14893;DHT22;7538;53.626;9.906;2023-02-08T06:03:08;-1.40;99.90
14893;DHT22;7538;53.626;9.906;2023-02-08T06:05:38;-1.40;99.90
14893;DHT22;7538;53.626;9.906;2023-02-08T06:08:05;-0.40;99.90
14893;DHT22;7538;53.626;9.906;2023-02-08T06:10:33;1.00;99.90
14893;DHT22;7538;53.626;9.906;2023-02-08T06:13:00;-1.50;99.90
14893;DHT22;7538;53.626;9.906;2023-02-08T06:15:27;-1.50;99.90
14893;DHT22;7538;53.626;9.906;2023-02-08T06:17:53;-1.60;99.90
14893;DHT22;7538;53.626;9.906;2023-02-08T06:20:20;-1.50;99.90
14893;DHT22;7538;53.626;9.906;2023-02-08T06:22:49;-1.50;99.90
14893;DHT22;7538;53.626;9.906;2023-02-08T06:25:16;-1.60;99.90
14893;DHT22;7538;53.626;9.906;2023-02-08T06:27:43;-1.50;99.90
14893;DHT22;7538;53.626;9.906;2023-02-08T06:30:10;-1.50;99.90
14893;DHT22;7538;53.626;9.906;2023-02-08T06:32:37;-1.50;99.90
14893;DHT22;7538;53.626;9.906;2023-02-08T06:35:04;1.30;99.90
14893;DHT22;7538;53.626;9.906;2023-02-08T06:37:31;-1.40;99.90
14893;DHT22;7538;53.626;9.906;2023-02-08T06:39:59;-1.40;99.90
14893;DHT22;7538;53.626;9.906;2023-02-08T06:42:26;-1.40;99.90
14893;DHT22;7538;53.626;9.906;2023-02-08T06:44:53;-1.30;99.90
14893;DHT22;7538;53.626;9.906;2023-02-08T06:47:20;-1.30;99.90
14893;DHT22;7538;53.626;9.906;2023-02-08T06:49:47;-1.30;99.90
14893;DHT22;7538;53.626;9.906;2023-02-08T06:52:14;-1.30;99.90
14893;DHT22;7538;53.626;9.906;2023-02-08T06:54:40;-1.30;99.90
14893;DHT22;7538;53.626;9.906;2023-02-08T06:57:09;-1.30;99.90
14893;DHT22;7538;53.626;9.906;2023-02-08T06:59:37;-1.30;99.90
14893;DHT22;7538;53.626;9.906;2023-02-08T07:02:04;-1.30;99.90
14893;DHT22;7538;53.626;9.906;2023-02-08T07:04:31;-1.30;99.90
14893;DHT22;7538;53.626;9.906;2023-02-08T07:06:57;-1.40;99.90
14893;DHT22;7538;53.626;9.906;2023-02-08T07:09:24;-1.40;99.90
14893;DHT22;7538;53.626;9.906;2023-02-08T07:11:51;-1.40;99.90
14893;DHT22;7538;53.626;9.906;2023-02-08T07:14:19;-1.40;99.90
14893;DHT22;7538;53.626;9.906;2023-02-08T07:16:46;-1.40;99.90
14893;DHT22;7538;53.626;9.906;2023-02-08T07:19:12;-1.40;99.90
14893;DHT22;7538;53.626;9.906;2023-02-08T07:21:39;-1.40;99.90
14893;DHT22;7538;53.626;9.906;2023-02-08T07:24:06;-1.30;99.90
14893;DHT22;7538;53.626;9.906;2023-02-08T07:26:33;-1.40;99.90
14893;DHT22;7538;53.626;9.906;2023-02-08T07:29:00;-1.30;99.90
14893;DHT22;7538;53.626;9.906;2023-02-08T07:31:28;-1.30;99.90
14893;DHT22;7538;53.626;9.906;2023-02-08T07:33:54;-1.20;99.90
14893;DHT22;7538;53.626;9.906;2023-02-08T07:36:21;-1.30;99.90
14893;DHT22;7538;53.626;9.906;2023-02-08T07:38:48;-1.20;99.90
14893;DHT22;7538;53.626;9.906;2023-02-08T07:41:15;-1.10;99.90
14893;DHT22;7538;53.626;9.906;2023-02-08T07:43:42;-1.10;99.90
14893;DHT22;7538;53.626;9.906;2023-02-08T07:46:10;-1.00;99.90
14893;DHT22;7538;53.626;9.906;2023-02-08T07:48:39;-0.90;99.90
14893;DHT22;7538;53.626;9.906;2023-02-08T07:51:06;-0.80;99.90
14893;DHT22;7538;53.626;9.906;2023-02-08T07:53:33;-0.70;99.90
14893;DHT22;7538;53.626;9.906;2023-02-08T07:56:00;-0.60;99.90
14893;DHT22;7538;53.626;9.906;2023-02-08T07:58:27;-0.60;99.90
14893;DHT22;7538;53.626;9.906;2023-02-08T08:00:54;-0.50;99.90
14893;DHT22;7538;53.626;9.906;2023-02-08T08:03:21;-0.50;99.90
14893;DHT22;7538;53.626;9.906;2023-02-08T08:05:50;-0.50;99.90
14893;DHT22;7538;53.626;9.906;2023-02-08T08:08:17;-0.40;99.90
14893;DHT22;7538;53.626;9.906;2023-02-08T08:10:44;-0.20;99.90
14893;DHT22;7538;53.626;9.906;2023-02-08T08:13:11;-0.20;99.90
14893;DHT22;7538;53.626;9.906;2023-02-08T08:15:38;0.00;99.90
14893;DHT22;7538;53.626;9.906;2023-02-08T08:18:05;0.10;99.90
14893;DHT22;7538;53.626;9.906;2023-02-08T08:20:32;0.30;99.90
14893;DHT22;7538;53.626;9.906;2023-02-08T08:23:01;0.40;99.90
14893;DHT22;7538;53.626;9.906;2023-02-08T08:25:28;0.50;99.90
14893;DHT22;7538;53.626;9.906;2023-02-08T08:27:54;0.70;99.90
14893;DHT22;7538;53.626;9.906;2023-02-08T08:30:22;1.00;99.90
14893;DHT22;7538;53.626;9.906;2023-02-08T08:32:48;1.40;99.90
14893;DHT22;7538;53.626;9.906;2023-02-08T08:35:15;1.80;99.90
14893;DHT22;7538;53.626;9.906;2023-02-08T08:37:42;2.40;99.90
14893;DHT22;7538;53.626;9.906;2023-02-08T08:40:11;2.90;99.90
14893;DHT22;7538;53.626;9.906;2023-02-08T08:42:38;3.40;99.90
14893;DHT22;7538;53.626;9.906;2023-02-08T08:45:06;3.70;99.90
14893;DHT22;7538;53.626;9.906;2023-02-08T08:47:33;4.20;99.90
14893;DHT22;7538;53.626;9.906;2023-02-08T08:50:00;4.70;98.40
14893;DHT22;7538;53.626;9.906;2023-02-08T08:52:27;4.90;97.10
14893;DHT22;7538;53.626;9.906;2023-02-08T08:54:54;5.50;96.10
14893;DHT22;7538;53.626;9.906;2023-02-08T08:57:22;6.10;94.60
14893;DHT22;7538;53.626;9.906;2023-02-08T08:59:48;6.80;92.80
14893;DHT22;7538;53.626;9.906;2023-02-08T09:02:15;7.40;91.30
14893;DHT22;7538;53.626;9.906;2023-02-08T09:04:42;7.80;89.60
14893;DHT22;7538;53.626;9.906;2023-02-08T09:07:09;8.50;88.00
14893;DHT22;7538;53.626;9.906;2023-02-08T09:09:36;9.20;85.00
14893;DHT22;7538;53.626;9.906;2023-02-08T09:12:04;9.90;81.40
14893;DHT22;7538;53.626;9.906;2023-02-08T09:14:32;10.50;79.30
14893;DHT22;7538;53.626;9.906;2023-02-08T09:16:59;11.30;75.00
14893;DHT22;7538;53.626;9.906;2023-02-08T09:19:25;12.00;72.70
14893;DHT22;7538;53.626;9.906;2023-02-08T09:21:53;12.50;70.30
14893;DHT22;7538;53.626;9.906;2023-02-08T09:24:22;13.10;69.30
14893;DHT22;7538;53.626;9.906;2023-02-08T09:26:49;13.60;65.70
14893;DHT22;7538;53.626;9.906;2023-02-08T09:29:15;14.10;64.90
14893;DHT22;7538;53.626;9.906;2023-02-08T09:31:44;14.30;62.20
14893;DHT22;7538;53.626;9.906;2023-02-08T09:34:10;14.50;60.30
14893;DHT22;7538;53.626;9.906;2023-02-08T09:36:39;14.60;59.60
14893;DHT22;7538;53.626;9.906;2023-02-08T09:39:09;15.00;59.00
14893;DHT22;7538;53.626;9.906;2023-02-08T09:42:00;15.40;57.00
14893;DHT22;7538;53.626;9.906;2023-02-08T09:44:35;15.40;55.90
14893;DHT22;7538;53.626;9.906;2023-02-08T09:47:12;15.80;55.10
14893;DHT22;7538;53.626;9.906;2023-02-08T09:49:45;16.40;53.70
14893;DHT22;7538;53.626;9.906;2023-02-08T09:52:19;16.90;51.30
14893;DHT22;7538;53.626;9.906;2023-02-08T09:54:51;17.20;49.90
14893;DHT22;7538;53.626;9.906;2023-02-08T09:57:21;17.50;48.30
14893;DHT22;7538;53.626;9.906;2023-02-08T09:59:52;17.90;47.40
14893;DHT22;7538;53.626;9.906;2023-02-08T10:02:24;18.30;45.60
14893;DHT22;7538;53.626;9.906;2023-02-08T10:04:57;18.50;44.30
14893;DHT22;7538;53.626;9.906;2023-02-08T10:07:26;18.50;42.90
14893;DHT22;7538;53.626;9.906;2023-02-08T10:09:55;18.60;42.60
14893;DHT22;7538;53.626;9.906;2023-02-08T10:12:31;18.70;40.70
14893;DHT22;7538;53.626;9.906;2023-02-08T10:15:08;18.40;40.00
14893;DHT22;7538;53.626;9.906;2023-02-08T10:18:07;17.80;40.60
14893;DHT22;7538;53.626;9.906;2023-02-08T10:20:47;17.80;41.00
14893;DHT22;7538;53.626;9.906;2023-02-08T10:23:25;18.00;40.70
14893;DHT22;7538;53.626;9.906;2023-02-08T10:26:09;18.10;40.40
14893;DHT22;7538;53.626;9.906;2023-02-08T10:29:04;18.10;39.80
14893;DHT22;7538;53.626;9.906;2023-02-08T10:31:48;17.50;38.90
14893;DHT22;7538;53.626;9.906;2023-02-08T10:34:29;16.70;39.90
14893;DHT22;7538;53.626;9.906;2023-02-08T10:37:05;15.70;40.50
14893;DHT22;7538;53.626;9.906;2023-02-08T10:39:38;11.30;40.50
14893;DHT22;7538;53.626;9.906;2023-02-08T10:42:11;13.50;43.80
14893;DHT22;7538;53.626;9.906;2023-02-08T10:44:49;12.50;45.10
14893;DHT22;7538;53.626;9.906;2023-02-08T10:47:21;11.10;46.20
14893;DHT22;7538;53.626;9.906;2023-02-08T10:49:56;10.20;48.40
14893;DHT22;7538;53.626;9.906;2023-02-08T10:52:24;9.50;50.10
14893;DHT22;7538;53.626;9.906;2023-02-08T10:54:51;9.00;51.70
14893;DHT22;7538;53.626;9.906;2023-02-08T10:57:22;8.60;53.00
14893;DHT22;7538;53.626;9.906;2023-02-08T10:59:52;8.10;53.70
14893;DHT22;7538;53.626;9.906;2023-02-08T11:02:22;7.80;55.00
14893;DHT22;7538;53.626;9.906;2023-02-08T11:05:00;7.60;56.80
14893;DHT22;7538;53.626;9.906;2023-02-08T11:07:27;9.30;59.10
14893;DHT22;7538;53.626;9.906;2023-02-08T11:10:13;6.80;58.00
14893;DHT22;7538;53.626;9.906;2023-02-08T11:12:40;6.40;59.70
14893;DHT22;7538;53.626;9.906;2023-02-08T11:15:21;6.30;61.30
14893;DHT22;7538;53.626;9.906;2023-02-08T11:17:54;6.20;63.00
14893;DHT22;7538;53.626;9.906;2023-02-08T11:20:28;6.10;64.90
14893;DHT22;7538;53.626;9.906;2023-02-08T11:22:56;5.90;65.80
14893;DHT22;7538;53.626;9.906;2023-02-08T11:25:32;5.70;69.50
14893;DHT22;7538;53.626;9.906;2023-02-08T11:28:00;5.40;72.70
14893;DHT22;7538;53.626;9.906;2023-02-08T11:30:27;5.40;74.40
14893;DHT22;7538;53.626;9.906;2023-02-08T11:33:20;5.20;75.60
14893;DHT22;7538;53.626;9.906;2023-02-08T11:35:58;5.10;77.50
14893;DHT22;7538;53.626;9.906;2023-02-08T11:38:26;5.10;80.00
14893;DHT22;7538;53.626;9.906;2023-02-08T11:40:55;4.90;80.20
14893;DHT22;7538;53.626;9.906;2023-02-08T11:43:25;4.80;80.70
14893;DHT22;7538;53.626;9.906;2023-02-08T11:45:54;4.70;82.00
14893;DHT22;7538;53.626;9.906;2023-02-08T11:48:25;4.90;82.60
14893;DHT22;7538;53.626;9.906;2023-02-08T11:50:58;5.00;81.80
14893;DHT22;7538;53.626;9.906;2023-02-08T11:53:28;5.10;82.60
14893;DHT22;7538;53.626;9.906;2023-02-08T11:56:03;5.20;82.90
14893;DHT22;7538;53.626;9.906;2023-02-08T11:58:30;5.00;82.50
14893;DHT22;7538;53.626;9.906;2023-02-08T12:00:59;4.50;82.20
14893;DHT22;7538;53.626;9.906;2023-02-08T12:03:29;5.10;82.40
14893;DHT22;7538;53.626;9.906;2023-02-08T12:06:18;5.10;83.00
14893;DHT22;7538;53.626;9.906;2023-02-08T12:08:54;5.10;83.30
14893;DHT22;7538;53.626;9.906;2023-02-08T12:11:28;5.20;83.10
14893;DHT22;7538;53.626;9.906;2023-02-08T12:17:15;5.30;81.50
14893;DHT22;7538;53.626;9.906;2023-02-08T12:20:07;5.20;81.30
14893;DHT22;7538;53.626;9.906;2023-02-08T12:22:41;5.20;81.50
14893;DHT22;7538;53.626;9.906;2023-02-08T12:25:21;5.10;80.00
14893;DHT22;7538;53.626;9.906;2023-02-08T12:27:56;5.30;80.90
14893;DHT22;7538;53.626;9.906;2023-02-08T12:30:28;5.40;81.40
14893;DHT22;7538;53.626;9.906;2023-02-08T12:33:26;5.40;80.60
14893;DHT22;7538;53.626;9.906;2023-02-08T12:39:05;5.60;81.00
14893;DHT22;7538;53.626;9.906;2023-02-08T12:42:08;5.60;80.10
14893;DHT22;7538;53.626;9.906;2023-02-08T12:44:49;5.50;80.10
14893;DHT22;7538;53.626;9.906;2023-02-08T12:47:33;5.60;80.30
14893;DHT22;7538;53.626;9.906;2023-02-08T12:50:12;5.50;80.00
14893;DHT22;7538;53.626;9.906;2023-02-08T12:52:46;5.50;80.50
14893;DHT22;7538;53.626;9.906;2023-02-08T12:55:19;5.60;81.30
14893;DHT22;7538;53.626;9.906;2023-02-08T12:57:51;5.70;80.10
14893;DHT22;7538;53.626;9.906;2023-02-08T13:00:22;5.50;80.30
14893;DHT22;7538;53.626;9.906;2023-02-08T13:02:57;5.50;80.40
14893;DHT22;7538;53.626;9.906;2023-02-08T13:05:29;5.50;80.20
14893;DHT22;7538;53.626;9.906;2023-02-08T13:08:01;5.60;79.70
14893;DHT22;7538;53.626;9.906;2023-02-08T13:10:33;5.50;78.90
14893;DHT22;7538;53.626;9.906;2023-02-08T13:13:12;5.60;79.50
14893;DHT22;7538;53.626;9.906;2023-02-08T13:15:44;5.60;79.20
14893;DHT22;7538;53.626;9.906;2023-02-08T13:18:14;5.70;79.10
14893;DHT22;7538;53.626;9.906;2023-02-08T13:20:45;5.80;78.70
14893;DHT22;7538;53.626;9.906;2023-02-08T13:23:19;5.80;77.00
14893;DHT22;7538;53.626;9.906;2023-02-08T13:25:52;5.70;77.60
14893;DHT22;7538;53.626;9.906;2023-02-08T13:28:21;5.70;77.40
14893;DHT22;7538;53.626;9.906;2023-02-08T13:30:54;5.70;78.20
14893;DHT22;7538;53.626;9.906;2023-02-08T13:33:32;5.80;77.90
14893;DHT22;7538;53.626;9.906;2023-02-08T13:36:00;5.80;77.20
14893;DHT22;7538;53.626;9.906;2023-02-08T13:38:30;5.80;77.70
14893;DHT22;7538;53.626;9.906;2023-02-08T13:41:07;5.80;78.20
14893;DHT22;7538;53.626;9.906;2023-02-08T13:43:42;5.70;77.80
14893;DHT22;7538;53.626;9.906;2023-02-08T13:46:11;5.70;77.10
14893;DHT22;7538;53.626;9.906;2023-02-08T13:48:46;5.70;77.80
14893;DHT22;7538;53.626;9.906;2023-02-08T13:54:28;5.80;76.60
14893;DHT22;7538;53.626;9.906;2023-02-08T13:56:56;5.70;76.60
14893;DHT22;7538;53.626;9.906;2023-02-08T13:59:30;5.80;77.00
14893;DHT22;7538;53.626;9.906;2023-02-08T14:02:26;5.80;75.60
14893;DHT22;7538;53.626;9.906;2023-02-08T14:07:41;5.80;76.30
14893;DHT22;7538;53.626;9.906;2023-02-08T14:10:20;5.80;75.90
14893;DHT22;7538;53.626;9.906;2023-02-08T14:12:54;5.80;76.30
14893;DHT22;7538;53.626;9.906;2023-02-08T14:15:29;6.50;76.30
14893;DHT22;7538;53.626;9.906;2023-02-08T14:17:57;5.90;74.20
14893;DHT22;7538;53.626;9.906;2023-02-08T14:20:28;5.90;73.50
14893;DHT22;7538;53.626;9.906;2023-02-08T14:22:58;5.90;73.90
14893;DHT22;7538;53.626;9.906;2023-02-08T14:25:28;5.90;72.90
14893;DHT22;7538;53.626;9.906;2023-02-08T14:27:58;6.00;73.20
14893;DHT22;7538;53.626;9.906;2023-02-08T14:30:27;6.00;72.30
14893;DHT22;7538;53.626;9.906;2023-02-08T14:33:10;6.10;71.60
14893;DHT22;7538;53.626;9.906;2023-02-08T14:35:40;6.00;71.00
14893;DHT22;7538;53.626;9.906;2023-02-08T14:38:31;5.90;70.90
14893;DHT22;7538;53.626;9.906;2023-02-08T14:41:00;6.00;71.60
14893;DHT22;7538;53.626;9.906;2023-02-08T14:43:31;6.10;71.80
14893;DHT22;7538;53.626;9.906;2023-02-08T14:48:59;6.20;72.10
14893;DHT22;7538;53.626;9.906;2023-02-08T14:51:31;6.20;71.70
14893;DHT22;7538;53.626;9.906;2023-02-08T14:54:05;6.10;72.50
14893;DHT22;7538;53.626;9.906;2023-02-08T14:56:49;6.10;72.20
14893;DHT22;7538;53.626;9.906;2023-02-08T14:59:21;6.20;72.80
14893;DHT22;7538;53.626;9.906;2023-02-08T15:01:51;6.20;72.30
14893;DHT22;7538;53.626;9.906;2023-02-08T15:04:19;6.10;72.60
14893;DHT22;7538;53.626;9.906;2023-02-08T15:06:56;6.20;72.80
14893;DHT22;7538;53.626;9.906;2023-02-08T15:09:28;6.20;73.20
14893;DHT22;7538;53.626;9.906;2023-02-08T15:11:59;6.20;73.00
14893;DHT22;7538;53.626;9.906;2023-02-08T15:14:29;6.10;73.70
14893;DHT22;7538;53.626;9.906;2023-02-08T15:16:57;6.20;74.20
14893;DHT22;7538;53.626;9.906;2023-02-08T15:19:27;6.20;74.40
14893;DHT22;7538;53.626;9.906;2023-02-08T15:21:54;6.20;74.90
14893;DHT22;7538;53.626;9.906;2023-02-08T15:24:22;6.00;75.60
14893;DHT22;7538;53.626;9.906;2023-02-08T15:26:54;6.10;76.50
14893;DHT22;7538;53.626;9.906;2023-02-08T15:29:23;6.10;76.80
14893;DHT22;7538;53.626;9.906;2023-02-08T15:31:53;6.00;77.30
14893;DHT22;7538;53.626;9.906;2023-02-08T15:34:23;6.00;77.90
14893;DHT22;7538;53.626;9.906;2023-02-08T15:36:52;5.90;78.80
14893;DHT22;7538;53.626;9.906;2023-02-08T15:39:26;5.90;79.30
14893;DHT22;7538;53.626;9.906;2023-02-08T15:41:56;5.80;80.00
14893;DHT22;7538;53.626;9.906;2023-02-08T15:44:25;5.60;80.60
14893;DHT22;7538;53.626;9.906;2023-02-08T15:46:58;5.60;80.80
14893;DHT22;7538;53.626;9.906;2023-02-08T15:49:30;5.50;81.50
14893;DHT22;7538;53.626;9.906;2023-02-08T15:51:58;5.50;81.90
14893;DHT22;7538;53.626;9.906;2023-02-08T15:54:25;5.50;82.20
14893;DHT22;7538;53.626;9.906;2023-02-08T15:56:54;5.50;82.30
14893;DHT22;7538;53.626;9.906;2023-02-08T15:59:24;5.50;82.60
14893;DHT22;7538;53.626;9.906;2023-02-08T16:01:52;5.40;83.10
14893;DHT22;7538;53.626;9.906;2023-02-08T16:04:21;5.40;83.30
14893;DHT22;7538;53.626;9.906;2023-02-08T16:06:50;5.20;84.10
14893;DHT22;7538;53.626;9.906;2023-02-08T16:09:21;5.20;84.70
14893;DHT22;7538;53.626;9.906;2023-02-08T16:11:50;6.10;86.20
14893;DHT22;7538;53.626;9.906;2023-02-08T16:14:19;4.90;86.30
14893;DHT22;7538;53.626;9.906;2023-02-08T16:16:49;4.90;86.90
14893;DHT22;7538;53.626;9.906;2023-02-08T16:19:24;4.90;87.50
14893;DHT22;7538;53.626;9.906;2023-02-08T16:21:53;4.90;87.60
14893;DHT22;7538;53.626;9.906;2023-02-08T16:24:24;5.00;87.70
14893;DHT22;7538;53.626;9.906;2023-02-08T16:26:57;6.70;89.10
14893;DHT22;7538;53.626;9.906;2023-02-08T16:29:27;5.00;88.30